createdAt,value
2018-10-06T00:00:52.997Z,12.19
2018-10-06T00:04:58.070Z,12.16
2018-10-06T00:09:03.192Z,12.12
2018-10-06T00:13:08.238Z,12.09
2018-10-06T00:17:13.265Z,12.08
2018-10-06T00:21:18.334Z,12.08
2018-10-06T00:25:23.401Z,12.05
2018-10-06T00:29:28.470Z,12.09
2018-10-06T00:33:33.537Z,12.17
2018-10-06T00:37:38.597Z,12.11
2018-10-06T00:41:43.665Z,12.01
2018-10-06T00:45:48.749Z,11.93
2018-10-06T00:49:53.805Z,11.89
2018-10-06T00:53:58.893Z,11.85
2018-10-06T00:58:03.956Z,11.84
2018-10-06T01:02:09.089Z,11.81
2018-10-06T01:06:14.158Z,11.61
2018-10-06T01:10:19.187Z,11.60
2018-10-06T01:14:24.230Z,11.69
2018-10-06T01:18:29.278Z,11.65
2018-10-06T01:22:34.328Z,11.64
2018-10-06T01:26:39.410Z,11.60
2018-10-06T01:30:44.769Z,11.54
2018-10-06T01:34:49.848Z,11.52
2018-10-06T01:38:54.905Z,11.45
2018-10-06T01:43:00.046Z,11.42
2018-10-06T01:47:11.762Z,11.44
2018-10-06T01:51:16.787Z,11.41
2018-10-06T01:55:21.832Z,11.36
2018-10-06T01:59:26.889Z,11.28
2018-10-06T02:03:31.933Z,11.22
2018-10-06T02:07:36.980Z,11.16
2018-10-06T02:11:42.017Z,11.07
2018-10-06T02:15:47.265Z,11.28
2018-10-06T02:19:52.937Z,11.10
2018-10-06T02:23:57.977Z,11.13
2018-10-06T02:28:03.103Z,11.09
2018-10-06T02:32:08.130Z,10.83
2018-10-06T02:36:13.189Z,10.75
2018-10-06T02:40:18.248Z,10.76
2018-10-06T02:44:23.284Z,10.70
2018-10-06T02:48:28.377Z,10.53
2018-10-06T02:52:33.397Z,10.60
2018-10-06T02:56:38.420Z,10.75
2018-10-06T03:00:43.465Z,10.75
2018-10-06T03:04:48.522Z,10.65
2018-10-06T03:08:53.584Z,10.71
2018-10-06T03:12:58.591Z,10.74
2018-10-06T03:17:03.656Z,10.72
2018-10-06T03:21:08.681Z,10.67
2018-10-06T03:25:13.735Z,10.69
2018-10-06T03:29:18.784Z,10.69
2018-10-06T03:33:23.849Z,10.57
2018-10-06T03:37:28.877Z,10.64
2018-10-06T03:41:33.921Z,10.50
2018-10-06T03:45:39.193Z,10.38
2018-10-06T03:49:44.221Z,10.47
2018-10-06T03:53:49.270Z,10.40
2018-10-06T03:57:54.302Z,10.27
2018-10-06T04:01:59.327Z,10.21
2018-10-06T04:06:04.481Z,10.17
2018-10-06T04:10:09.517Z,10.05
2018-10-06T04:14:14.588Z,10.01
2018-10-06T04:18:19.644Z,9.98
2018-10-06T04:22:24.685Z,9.88
2018-10-06T04:26:29.717Z,9.84
2018-10-06T04:30:34.798Z,9.84
2018-10-06T04:34:39.819Z,9.79
2018-10-06T04:38:44.820Z,9.92
2018-10-06T04:42:49.856Z,9.61
2018-10-06T04:47:01.701Z,9.80
2018-10-06T04:51:06.753Z,9.82
2018-10-06T04:55:11.771Z,9.67
2018-10-06T04:59:16.793Z,9.46
2018-10-06T05:03:21.859Z,9.46
2018-10-06T05:07:26.797Z,9.40
2018-10-06T05:11:31.808Z,9.26
2018-10-06T05:15:36.820Z,9.29
2018-10-06T05:19:41.849Z,9.28
2018-10-06T05:23:46.904Z,9.30
2018-10-06T05:27:51.970Z,9.35
2018-10-06T05:31:56.998Z,9.35
2018-10-06T05:36:02.013Z,9.33
2018-10-06T05:40:07.124Z,9.27
2018-10-06T05:44:12.141Z,9.31
2018-10-06T05:48:17.193Z,9.30
2018-10-06T05:52:22.226Z,9.36
2018-10-06T05:56:27.268Z,9.42
2018-10-06T06:00:32.339Z,9.61
2018-10-06T06:04:37.381Z,9.60
2018-10-06T06:08:42.431Z,9.57
2018-10-06T06:12:47.470Z,9.72
2018-10-06T06:16:52.517Z,9.86
2018-10-06T06:20:57.640Z,10.06
2018-10-06T06:25:02.680Z,10.05
2018-10-06T06:29:07.705Z,10.11
2018-10-06T06:33:12.758Z,10.05
2018-10-06T06:37:17.792Z,10.14
2018-10-06T06:41:22.818Z,10.29
2018-10-06T06:45:27.841Z,10.39
2018-10-06T06:49:32.866Z,10.57
2018-10-06T06:53:37.940Z,10.75
2018-10-06T06:57:43.036Z,10.76
2018-10-06T07:01:48.050Z,10.69
2018-10-06T07:05:53.152Z,10.72
2018-10-06T07:09:58.131Z,10.71
2018-10-06T07:14:03.157Z,10.77
2018-10-06T07:18:08.221Z,11.26
2018-10-06T07:22:13.277Z,11.40
2018-10-06T07:26:18.356Z,11.59
2018-10-06T07:30:23.384Z,11.88
2018-10-06T07:34:28.462Z,12.21
2018-10-06T07:38:33.495Z,12.36
2018-10-06T07:42:38.509Z,12.84
2018-10-06T07:46:43.529Z,13.09
2018-10-06T07:50:48.672Z,13.21
2018-10-06T07:54:53.725Z,13.73
2018-10-06T07:58:58.820Z,14.27
2018-10-06T08:03:03.868Z,14.71
2018-10-06T08:07:09.525Z,14.28
2018-10-06T08:11:14.567Z,14.67
2018-10-06T08:15:19.626Z,15.46
2018-10-06T08:19:24.788Z,15.82
2018-10-06T08:23:30.029Z,16.67
2018-10-06T08:27:35.078Z,16.30
2018-10-06T08:31:40.133Z,17.39
2018-10-06T08:35:46.468Z,17.45
2018-10-06T08:39:51.530Z,17.97
2018-10-06T08:43:56.745Z,17.86
2018-10-06T08:48:01.898Z,17.59
2018-10-06T08:52:07.074Z,18.25
2018-10-06T08:56:12.238Z,18.51
2018-10-06T09:00:17.233Z,18.09
2018-10-06T09:04:22.322Z,18.18
2018-10-06T09:08:27.401Z,18.53
2018-10-06T09:12:32.454Z,18.07
2018-10-06T09:16:37.564Z,18.43
2018-10-06T09:20:42.641Z,18.10
2018-10-06T09:24:47.720Z,18.06
2018-10-06T09:28:52.785Z,18.39
2018-10-06T09:32:57.812Z,18.36
2018-10-06T09:37:03.027Z,18.33
2018-10-06T09:41:09.196Z,18.47
2018-10-06T09:45:18.735Z,18.17
2018-10-06T09:49:24.848Z,18.65
2018-10-06T09:53:30.014Z,18.60
2018-10-06T09:57:35.076Z,18.70
2018-10-06T10:01:45.466Z,18.96
2018-10-06T10:05:52.408Z,19.18
2018-10-06T10:09:57.472Z,19.34
2018-10-06T10:14:02.471Z,19.53
2018-10-06T10:18:07.687Z,19.63
2018-10-06T10:22:12.831Z,19.85
2018-10-06T10:26:17.682Z,19.98
2018-10-06T10:30:22.731Z,20.21
2018-10-06T10:34:27.824Z,20.09
2018-10-06T10:38:32.861Z,20.55
2018-10-06T10:42:37.941Z,20.51
2018-10-06T10:46:43.006Z,20.55
2018-10-06T10:50:48.969Z,21.04
2018-10-06T10:54:54.064Z,21.39
2018-10-06T10:58:59.136Z,21.25
2018-10-06T11:03:04.214Z,21.50
2018-10-06T11:07:10.402Z,21.67
2018-10-06T11:11:15.544Z,21.98
2018-10-06T11:15:20.565Z,21.88
2018-10-06T11:23:29.702Z,22.07
2018-10-06T11:27:34.784Z,22.47
2018-10-06T11:31:39.865Z,22.09
2018-10-06T11:35:45.039Z,22.86
2018-10-06T11:39:50.120Z,23.77
2018-10-06T11:43:55.218Z,23.51
2018-10-06T11:48:00.336Z,23.77
2018-10-06T11:52:05.420Z,23.54
2018-10-06T11:56:10.549Z,23.24
2018-10-06T12:00:15.856Z,23.15
2018-10-06T12:04:20.789Z,23.27
2018-10-06T12:08:25.836Z,23.27
2018-10-06T12:12:30.904Z,23.53
2018-10-06T12:16:36.052Z,23.20
2018-10-06T12:20:41.222Z,23.54
2018-10-06T12:24:46.173Z,23.44
2018-10-06T12:28:51.234Z,23.55
2018-10-06T12:32:56.309Z,23.90
2018-10-06T12:37:01.361Z,23.25
2018-10-06T12:41:06.492Z,23.35
2018-10-06T12:45:11.753Z,23.47
2018-10-06T12:49:16.914Z,23.79
2018-10-06T12:53:22.004Z,24.08
2018-10-06T12:57:27.059Z,24.04
2018-10-06T13:01:32.139Z,25.13
2018-10-06T13:05:37.197Z,25.14
2018-10-06T13:09:42.328Z,25.00
2018-10-06T13:13:47.408Z,25.84
2018-10-06T13:17:52.485Z,26.65
2018-10-06T13:21:57.533Z,26.43
2018-10-06T13:26:02.569Z,26.67
2018-10-06T13:30:07.613Z,26.04
2018-10-06T13:34:12.700Z,25.97
2018-10-06T13:38:17.736Z,26.15
2018-10-06T13:42:22.846Z,26.61
2018-10-06T13:46:27.901Z,26.61
2018-10-06T13:50:32.953Z,26.62
2018-10-06T13:54:38.243Z,26.36
2018-10-06T13:58:43.354Z,25.87
2018-10-06T14:02:48.358Z,25.67
2018-10-06T14:06:53.437Z,25.32
2018-10-06T14:10:58.521Z,24.80
2018-10-06T14:15:03.574Z,24.72
2018-10-06T14:19:08.642Z,24.26
2018-10-06T14:23:13.704Z,24.02
2018-10-06T14:27:18.802Z,23.68
2018-10-06T14:31:23.863Z,23.64
2018-10-06T14:35:28.922Z,23.44
2018-10-06T14:39:33.985Z,23.31
2018-10-06T14:43:39.053Z,23.22
2018-10-06T14:47:44.224Z,23.01
2018-10-06T14:51:49.240Z,23.05
2018-10-06T14:55:54.673Z,22.86
2018-10-06T15:00:00.425Z,22.77
2018-10-06T15:04:05.481Z,22.87
2018-10-06T15:08:10.535Z,22.84
2018-10-06T15:12:15.658Z,22.62
2018-10-06T15:16:20.825Z,22.52
2018-10-06T15:20:26.270Z,22.45
2018-10-06T15:24:31.345Z,22.58
2018-10-06T15:28:36.523Z,22.42
2018-10-06T15:32:41.613Z,22.33
2018-10-06T15:36:46.744Z,22.39
2018-10-06T15:40:51.706Z,22.27
2018-10-06T15:44:56.824Z,22.19
2018-10-06T15:49:01.870Z,22.09
2018-10-06T15:53:06.929Z,22.11
2018-10-06T15:57:12.036Z,22.06
2018-10-06T16:01:17.084Z,21.96
2018-10-06T16:05:22.132Z,21.93
2018-10-06T16:09:27.186Z,21.84
2018-10-06T16:13:32.231Z,21.81
2018-10-06T16:17:37.277Z,21.70
2018-10-06T16:21:42.434Z,21.64
2018-10-06T16:25:47.453Z,21.53
2018-10-06T16:29:52.496Z,21.53
2018-10-06T16:33:57.549Z,21.48
2018-10-06T16:38:02.609Z,21.40
2018-10-06T16:42:07.725Z,21.29
2018-10-06T16:46:12.788Z,21.30
2018-10-06T16:50:17.853Z,21.28
2018-10-06T16:54:22.860Z,21.21
2018-10-06T16:58:28.295Z,21.17
2018-10-06T17:02:33.353Z,21.07
2018-10-06T17:06:38.482Z,21.03
2018-10-06T17:10:43.495Z,20.96
2018-10-06T17:14:48.641Z,20.86
2018-10-06T17:18:53.789Z,20.81
2018-10-06T17:22:58.861Z,20.74
2018-10-06T17:27:03.912Z,20.66
2018-10-06T17:31:08.968Z,20.63
2018-10-06T17:35:14.012Z,20.59
2018-10-06T17:39:19.058Z,20.55
2018-10-06T17:43:24.116Z,20.54
2018-10-06T17:47:29.198Z,20.46
2018-10-06T17:51:34.243Z,20.41
2018-10-06T17:55:39.301Z,20.40
2018-10-06T17:59:44.397Z,20.43
2018-10-06T18:03:49.520Z,20.35
2018-10-06T18:07:54.598Z,20.29
2018-10-06T18:11:59.658Z,20.24
2018-10-06T18:16:04.706Z,20.20
2018-10-06T18:20:09.799Z,20.14
2018-10-06T18:24:14.817Z,20.15
2018-10-06T18:28:19.869Z,20.12
2018-10-06T18:32:24.910Z,20.06
2018-10-06T18:36:30.082Z,20.04
2018-10-06T18:40:35.069Z,19.97
2018-10-06T18:44:40.257Z,19.95
2018-10-06T18:48:45.302Z,19.91
2018-10-06T18:52:50.333Z,19.88
2018-10-06T18:56:55.406Z,19.85
2018-10-06T19:01:00.424Z,19.80
2018-10-06T19:05:05.605Z,19.79
2018-10-06T19:09:10.789Z,19.71
2018-10-06T19:13:15.834Z,19.69
2018-10-06T19:17:20.915Z,19.63
2018-10-06T19:21:25.942Z,19.58
2018-10-06T19:25:31.029Z,19.55
2018-10-06T19:29:36.049Z,19.53
2018-10-06T19:33:41.144Z,19.50
2018-10-06T19:37:46.140Z,19.37
2018-10-06T19:41:51.178Z,19.31
2018-10-06T19:45:56.229Z,19.23
2018-10-06T19:50:01.317Z,19.21
2018-10-06T19:54:06.385Z,19.14
2018-10-06T19:58:11.425Z,19.07
2018-10-06T20:02:16.453Z,19.06
2018-10-06T20:06:21.590Z,19.04
2018-10-06T20:10:26.640Z,18.94
2018-10-06T20:14:31.675Z,18.66
2018-10-06T20:18:36.825Z,18.50
2018-10-06T20:22:41.923Z,18.35
2018-10-06T20:26:47.005Z,18.32
2018-10-06T20:30:52.098Z,18.48
2018-10-06T20:34:57.207Z,18.46
2018-10-06T20:39:02.261Z,18.41
2018-10-06T20:43:07.331Z,18.34
2018-10-06T20:47:12.406Z,18.34
2018-10-06T20:51:17.485Z,18.27
2018-10-06T20:55:22.613Z,17.80
2018-10-06T20:59:27.681Z,17.74
2018-10-06T21:03:32.773Z,17.70
2018-10-06T21:07:37.849Z,17.47
2018-10-06T21:11:43.109Z,17.51
2018-10-06T21:15:48.238Z,17.51
2018-10-06T21:19:53.349Z,17.47
2018-10-06T21:23:58.402Z,17.47
2018-10-06T21:28:03.473Z,17.40
2018-10-06T21:32:08.719Z,17.31
2018-10-06T21:36:13.767Z,17.27
2018-10-06T21:40:19.078Z,17.27
2018-10-06T21:44:24.149Z,17.11
2018-10-06T21:48:29.208Z,17.07
2018-10-06T21:52:34.228Z,17.02
2018-10-06T21:56:39.300Z,16.99
2018-10-06T22:00:44.389Z,16.99
2018-10-06T22:04:49.450Z,16.95
2018-10-06T22:08:55.249Z,16.86
2018-10-06T22:13:00.276Z,16.83
2018-10-06T22:17:05.357Z,16.75
2018-10-06T22:21:10.452Z,16.66
2018-10-06T22:25:15.525Z,16.69
2018-10-06T22:29:20.683Z,16.60
2018-10-06T22:33:25.677Z,16.43
2018-10-06T22:37:30.757Z,16.40
2018-10-06T22:41:35.778Z,16.27
2018-10-06T22:45:40.824Z,16.28
2018-10-06T22:49:45.848Z,16.15
2018-10-06T22:53:50.898Z,16.20
2018-10-06T22:57:55.995Z,16.15
2018-10-06T23:02:00.988Z,16.03
2018-10-06T23:06:06.986Z,15.98
2018-10-06T23:10:12.036Z,16.00
2018-10-06T23:14:17.041Z,15.92
2018-10-06T23:18:22.085Z,15.81
2018-10-06T23:22:27.168Z,15.78
2018-10-06T23:26:32.221Z,15.73
2018-10-06T23:30:37.281Z,15.74
2018-10-06T23:34:42.317Z,15.71
2018-10-06T23:38:47.358Z,15.65
2018-10-06T23:42:52.426Z,15.65
2018-10-06T23:46:57.470Z,15.58
2018-10-06T23:51:02.518Z,15.55
2018-10-06T23:55:07.585Z,15.54
2018-10-06T23:59:12.602Z,15.52
